Edinburg, North Dakota
Current Conditions -  °F | °C
As of 7:15 PM on Tuesday 27 Jan 2015 (Local Time) from K2C8 Reporting Station
Haze Haze  
Wind Chill: 23°   Ceiling: 400
Heat Index: 32°   Visibility: 5mi
Dew Point: 32°   Wind: 12mph
Humidity: 100%   Direction: 170°S
Pressure: 29.91"   Gusts: NA
Location:  48.5°N, 97.86°W
Report Text: K2C8 280115Z AUTO 17010KT 5SM BR OVC004 00/00 A2991 RMK AO2
Loading
Personal Weather Stations






























Interactive Weather Map New forecast layout! Learn more

10-Day Weather Forecast

Advertisements
Track Severe Weather on mobile